Time;durP1;ratioP1;P1;durP2;ratioP2;P2;SDS_P1;SDS_P2;PMS_P1;PMS_P2;Temp;Humidity;BMP_temperature;BMP_pressure;BME280_temperature;BME280_humidity;BME280_pressure;Samples;Min_cycle;Max_cycle;Signal;HPM_P1;HPM_P2
2023/12/11 00:01:01;;;;;;;41.92;18.67;;;;;;;3.13;100.00;100229.25;5071123;28;20090;-78
2023/12/11 00:03:26;;;;;;;39.40;19.60;;;;;;;3.12;100.00;100235.50;5076477;28;20036;-78
2023/12/11 00:05:52;;;;;;;37.33;18.25;;;;;;;3.46;100.00;100258.22;5091004;28;20048;-78
2023/12/11 00:08:17;;;;;;;37.83;17.58;;;;;;;3.41;100.00;100289.50;5091268;28;20024;-81
2023/12/11 00:10:42;;;;;;;36.60;16.73;;;;;;;3.34;100.00;100267.44;5091299;28;20032;-78
2023/12/11 00:13:08;;;;;;;42.90;19.77;;;;;;;3.31;100.00;100252.81;5090733;28;20020;-79
2023/12/11 00:15:33;;;;;;;39.92;18.38;;;;;;;3.37;100.00;100273.22;5072976;28;20026;-79
2023/12/11 00:17:59;;;;;;;44.67;19.17;;;;;;;3.45;100.00;100284.72;5090928;28;20478;-78
2023/12/11 00:20:24;;;;;;;39.00;18.00;;;;;;;3.34;100.00;100283.28;5091050;28;20089;-79
2023/12/11 00:22:50;;;;;;;38.55;17.88;;;;;;;3.18;100.00;100279.63;5072595;28;20063;-78
2023/12/11 00:25:15;;;;;;;41.17;18.75;;;;;;;3.23;100.00;100292.34;5077163;28;20587;-78
2023/12/11 00:27:41;;;;;;;38.83;18.85;;;;;;;3.14;100.00;100288.88;5054411;28;20043;-80
2023/12/11 00:30:07;;;;;;;34.22;17.02;;;;;;;3.38;100.00;100310.94;5071011;28;20040;-81
2023/12/11 00:32:32;;;;;;;39.35;17.80;;;;;;;3.14;100.00;100294.13;5090807;28;20036;-81
2023/12/11 00:34:58;;;;;;;39.38;18.50;;;;;;;3.13;100.00;100299.59;5090309;28;20024;-78
2023/12/11 00:37:23;;;;;;;40.78;18.27;;;;;;;2.80;100.00;100262.69;5090670;28;20042;-78
2023/12/11 00:39:48;;;;;;;39.90;18.05;;;;;;;2.96;100.00;100288.19;5076912;28;20063;-78
2023/12/11 00:42:14;;;;;;;44.80;18.85;;;;;;;3.06;100.00;100290.69;5070205;28;20037;-78
2023/12/11 00:44:39;;;;;;;42.95;20.45;;;;;;;3.22;100.00;100309.94;5081553;28;20064;-80
2023/12/11 00:47:05;;;;;;;37.05;19.52;;;;;;;3.18;100.00;100316.53;5072182;28;20028;-78
2023/12/11 00:49:31;;;;;;;41.58;18.98;;;;;;;3.05;100.00;100289.06;5090445;28;20028;-77
2023/12/11 00:51:57;;;;;;;40.33;18.20;;;;;;;2.95;100.00;100295.28;5090323;28;20114;-79
2023/12/11 00:54:22;;;;;;;32.42;17.00;;;;;;;3.27;100.00;100342.91;5072196;28;20031;-81
2023/12/11 00:56:48;;;;;;;42.33;19.73;;;;;;;3.09;100.00;100333.34;5090155;28;20055;-77
2023/12/11 00:59:13;;;;;;;37.45;17.13;;;;;;;3.16;100.00;100339.59;5072124;28;20032;-78
2023/12/11 01:01:39;;;;;;;39.70;18.25;;;;;;;2.92;100.00;100284.25;5072134;28;20032;-79
2023/12/11 01:04:04;;;;;;;36.20;17.55;;;;;;;3.17;100.00;100322.81;5090186;28;20095;-79
2023/12/11 01:06:30;;;;;;;36.20;17.23;;;;;;;2.89;100.00;100289.84;5089607;28;20044;-78
2023/12/11 01:08:55;;;;;;;40.70;18.23;;;;;;;2.86;100.00;100300.72;5090270;28;20880;-77
2023/12/11 01:11:21;;;;;;;40.78;17.15;;;;;;;2.96;100.00;100288.19;5090379;28;20028;-78
2023/12/11 01:13:46;;;;;;;40.05;18.67;;;;;;;3.14;100.00;100315.22;5071858;28;20031;-83
2023/12/11 01:16:12;;;;;;;40.13;19.92;;;;;;;3.14;100.00;100291.50;5071879;28;20028;-78
2023/12/11 01:18:37;;;;;;;40.10;17.65;;;;;;;3.25;100.00;100279.81;5071866;28;20466;-78
2023/12/11 01:21:03;;;;;;;43.03;19.27;;;;;;;3.21;100.00;100281.16;5090123;28;20067;-80
2023/12/11 01:23:28;;;;;;;41.30;19.52;;;;;;;3.22;100.00;100254.59;5071928;28;20032;-78
2023/12/11 01:25:54;;;;;;;44.65;19.60;;;;;;;3.15;100.00;100264.19;5089852;28;20435;-79
2023/12/11 01:28:19;;;;;;;39.92;19.38;;;;;;;3.14;100.00;100267.78;5071663;28;20020;-80
2023/12/11 01:30:45;;;;;;;40.13;19.40;;;;;;;3.35;100.00;100266.44;5071551;28;20028;-77
2023/12/11 01:33:10;;;;;;;41.90;19.35;;;;;;;3.17;100.00;100250.84;5089918;28;20024;-81
2023/12/11 01:35:37;;;;;;;42.28;19.00;;;;;;;3.17;100.00;100253.47;5089674;28;20499;-79
2023/12/11 01:38:03;;;;;;;45.95;20.27;;;;;;;2.85;100.00;100243.75;5071908;28;20496;-78
2023/12/11 01:40:29;;;;;;;41.75;19.10;;;;;;;3.16;100.00;100278.16;5090106;28;20040;-79
2023/12/11 01:42:54;;;;;;;42.33;19.48;;;;;;;2.94;100.00;100261.19;5090117;28;20049;-81
2023/12/11 01:45:20;;;;;;;44.05;19.05;;;;;;;3.00;100.00;100240.31;5071617;28;20024;-78
2023/12/11 01:47:45;;;;;;;43.45;19.17;;;;;;;3.03;100.00;100254.97;5083777;28;20032;-77
2023/12/11 01:50:11;;;;;;;46.33;18.75;;;;;;;3.19;100.00;100265.50;5089737;28;20506;-77
2023/12/11 01:52:37;;;;;;;40.17;17.77;;;;;;;3.14;100.00;100259.06;5071739;28;20032;-81
2023/12/11 01:55:04;;;;;;;42.25;18.73;;;;;;;3.20;100.00;100246.03;5089253;28;20028;-78
2023/12/11 01:57:31;;;;;;;45.17;20.93;;;;;;;3.11;100.00;100256.78;5089892;28;20024;-78
2023/12/11 01:59:56;;;;;;;42.15;19.83;;;;;;;3.02;100.00;100245.38;5089658;28;20020;-80
2023/12/11 02:02:22;;;;;;;42.72;18.10;;;;;;;3.32;100.00;100264.16;5089583;28;20028;-79
2023/12/11 02:04:49;;;;;;;40.00;17.75;;;;;;;3.09;100.00;100220.03;5089492;28;20048;-80
2023/12/11 02:07:16;;;;;;;41.60;19.43;;;;;;;3.08;100.00;100236.00;5071358;28;20028;-78
2023/12/11 02:09:41;;;;;;;40.13;18.67;;;;;;;3.16;100.00;100243.91;5089780;28;20028;-79
2023/12/11 02:12:07;;;;;;;44.75;19.98;;;;;;;3.12;100.00;100226.78;5071131;28;20036;-78
2023/12/11 02:14:32;;;;;;;42.78;19.75;;;;;;;3.15;100.00;100239.66;5089992;28;20541;-82
2023/12/11 02:16:58;;;;;;;40.65;18.17;;;;;;;3.14;100.00;100217.72;5062857;28;20043;-78
2023/12/11 02:19:23;;;;;;;38.75;18.65;;;;;;;3.28;100.00;100237.31;5070557;28;20430;-79
2023/12/11 02:21:49;;;;;;;40.90;17.40;;;;;;;3.10;100.00;100207.69;5089598;28;20462;-78
2023/12/11 02:24:31;;;;;;;44.55;21.08;;;;;;;3.10;100.00;100211.13;5089499;28;20032;-78
2023/12/11 02:26:57;;;;;;;42.22;19.77;;;;;;;3.34;100.00;100212.91;5076326;28;20031;-78
2023/12/11 02:29:24;;;;;;;38.55;17.77;;;;;;;3.47;100.00;100233.47;5089158;28;20369;-78
2023/12/11 02:31:49;;;;;;;42.13;19.17;;;;;;;3.12;100.00;100193.34;5089505;28;20028;-78
2023/12/11 02:34:14;;;;;;;41.58;18.00;;;;;;;3.42;100.00;100227.91;5089139;28;20411;-78
2023/12/11 02:36:40;;;;;;;41.08;18.67;;;;;;;3.34;100.00;100188.38;5089397;28;20042;-79
2023/12/11 02:39:05;;;;;;;41.13;19.13;;;;;;;3.26;100.00;100212.94;5089272;28;20023;-79
2023/12/11 02:41:31;;;;;;;42.47;19.38;;;;;;;3.41;100.00;100219.19;5072221;28;20040;-78
2023/12/11 02:43:58;;;;;;;39.22;17.95;;;;;;;3.17;100.00;100198.94;5092809;28;20081;-77
2023/12/11 02:46:23;;;;;;;38.80;17.77;;;;;;;3.26;100.00;100217.38;5092515;28;20093;-80
2023/12/11 02:48:49;;;;;;;38.70;18.98;;;;;;;3.37;100.00;100219.66;5092912;28;20032;-79
2023/12/11 02:51:17;;;;;;;46.25;18.88;;;;;;;3.18;100.00;100205.84;5092803;28;20074;-80
2023/12/11 02:53:42;;;;;;;43.05;19.83;;;;;;;3.20;100.00;100198.59;5092819;28;20055;-80
2023/12/11 02:56:08;;;;;;;42.10;18.58;;;;;;;3.27;100.00;100230.41;5074350;28;20067;-77
2023/12/11 03:05:11;;;;;;;40.92;18.23;;;;;;;2.47;100.00;100198.63;5052516;22;1356196;-78
2023/12/11 03:07:36;;;;;;;35.55;17.42;;;;;;;2.42;100.00;100205.19;5066568;28;20143;-77
2023/12/11 03:10:02;;;;;;;43.22;19.67;;;;;;;2.66;100.00;100211.50;5033369;28;20017;-77
2023/12/11 03:12:27;;;;;;;42.45;19.10;;;;;;;2.65;100.00;100206.38;5067987;28;20033;-77
2023/12/11 03:14:53;;;;;;;43.90;19.67;;;;;;;2.74;100.00;100208.88;5051140;28;20480;-77
2023/12/11 03:17:18;;;;;;;43.70;18.13;;;;;;;3.22;100.00;100259.88;5067956;28;20035;-77
2023/12/11 03:19:44;;;;;;;41.60;19.83;;;;;;;2.90;100.00;100209.84;5068315;28;20029;-78
2023/12/11 03:22:09;;;;;;;41.17;18.77;;;;;;;2.99;100.00;100251.00;5067850;28;20060;-77
2023/12/11 03:24:35;;;;;;;39.45;19.25;;;;;;;3.10;100.00;100250.66;5067937;28;20025;-77
2023/12/11 03:27:00;;;;;;;43.72;18.85;;;;;;;3.07;100.00;100240.47;5068172;28;20050;-77
2023/12/11 03:31:31;;;;;;;46.17;19.15;;;;;;;2.91;100.00;100272.09;5009181;22;2297159;-78
2023/12/11 03:33:57;;;;;;;44.63;19.92;;;;;;;3.11;100.00;100265.50;5067334;28;20041;-77
2023/12/11 03:36:22;;;;;;;41.25;18.30;;;;;;;2.91;100.00;100243.09;5068731;28;20494;-78
2023/12/11 03:38:48;;;;;;;42.40;19.23;;;;;;;3.01;100.00;100241.13;5069461;28;20040;-79
2023/12/11 03:41:13;;;;;;;40.92;18.63;;;;;;;2.97;100.00;100231.91;5067640;28;20028;-78
2023/12/11 03:43:38;;;;;;;44.00;19.77;;;;;;;3.38;100.00;100263.50;5064254;28;20035;-78
2023/12/11 03:46:04;;;;;;;42.80;19.08;;;;;;;3.36;100.00;100234.66;5067321;28;20029;-80
2023/12/11 03:48:30;;;;;;;43.88;18.65;;;;;;;3.34;100.00;100256.91;5068697;28;20028;-79
2023/12/11 03:50:56;;;;;;;47.05;20.25;;;;;;;3.06;100.00;100244.06;5068554;28;20063;-78
2023/12/11 03:53:21;;;;;;;42.22;19.35;;;;;;;2.96;100.00;100248.69;5068539;28;20032;-77
2023/12/11 03:55:47;;;;;;;43.33;18.98;;;;;;;3.08;100.00;100257.91;5068608;28;20033;-78
2023/12/11 03:58:12;;;;;;;39.75;19.08;;;;;;;2.73;100.00;100228.25;5068364;28;20067;-77
2023/12/11 04:00:37;;;;;;;42.83;19.60;;;;;;;3.02;100.00;100250.66;5067186;28;20028;-77
2023/12/11 04:03:03;;;;;;;42.08;18.92;;;;;;;2.81;100.00;100240.63;5067319;28;20028;-77
2023/12/11 04:05:28;;;;;;;45.30;19.08;;;;;;;2.89;100.00;100226.63;5067977;28;20031;-78
2023/12/11 04:07:54;;;;;;;43.33;18.85;;;;;;;2.67;100.00;100243.91;5066944;28;20468;-77
2023/12/11 04:10:19;;;;;;;41.58;19.25;;;;;;;2.87;100.00;100271.56;5068214;28;20017;-79
2023/12/11 04:12:45;;;;;;;44.10;20.70;;;;;;;2.92;100.00;100248.22;5063258;28;20033;-79
2023/12/11 04:15:10;;;;;;;44.08;21.65;;;;;;;2.87;100.00;100265.50;5058940;28;20023;-77
2023/12/11 04:17:36;;;;;;;45.63;20.05;;;;;;;2.68;100.00;100262.19;5058128;28;20021;-77
2023/12/11 04:20:03;;;;;;;44.10;19.38;;;;;;;2.31;100.00;100231.84;5052054;28;20032;-82
2023/12/11 04:22:29;;;;;;;40.95;20.05;;;;;;;2.66;100.00;100279.13;5057549;28;20127;-78
2023/12/11 04:24:54;;;;;;;45.85;20.85;;;;;;;2.63;100.00;100237.31;5052459;28;20512;-80
2023/12/11 04:27:20;;;;;;;50.95;20.48;;;;;;;3.06;100.00;100273.06;5047877;28;20032;-78
2023/12/11 04:29:45;;;;;;;41.88;19.50;;;;;;;2.71;100.00;100232.88;5047822;28;20022;-79
2023/12/11 04:32:11;;;;;;;49.00;21.85;;;;;;;3.22;100.00;100280.97;5046395;28;20469;-82
2023/12/11 04:34:36;;;;;;;42.75;18.77;;;;;;;3.12;100.00;100275.03;5053477;28;20558;-77
2023/12/11 04:37:02;;;;;;;43.50;18.88;;;;;;;2.93;100.00;100241.94;5047136;28;20022;-78
2023/12/11 04:39:27;;;;;;;41.08;19.50;;;;;;;2.99;100.00;100233.38;5047843;28;20036;-78
2023/12/11 04:41:52;;;;;;;38.40;18.38;;;;;;;3.37;100.00;100281.13;5039194;28;20038;-77
2023/12/11 04:44:18;;;;;;;42.72;18.20;;;;;;;3.13;100.00;100244.25;5049458;28;20474;-77
2023/12/11 04:46:43;;;;;;;42.22;18.70;;;;;;;3.24;100.00;100275.53;5054300;28;20409;-77
2023/12/11 04:49:09;;;;;;;39.90;18.67;;;;;;;3.42;100.00;100288.53;5054211;28;20470;-77
2023/12/11 04:51:34;;;;;;;39.72;19.13;;;;;;;3.17;100.00;100267.47;5053697;28;20429;-79
2023/12/11 04:54:00;;;;;;;37.25;17.05;;;;;;;3.49;100.00;100301.88;5052757;28;20021;-77
2023/12/11 04:56:25;;;;;;;40.90;17.63;;;;;;;3.15;100.00;100301.06;5053171;28;20033;-78
2023/12/11 04:58:51;;;;;;;39.60;18.33;;;;;;;3.15;100.00;100266.81;5052591;28;20029;-77
2023/12/11 05:01:16;;;;;;;37.95;17.17;;;;;;;3.34;100.00;100278.00;5054194;28;20477;-78
2023/12/11 05:03:42;;;;;;;35.78;16.10;;;;;;;3.35;100.00;100280.47;5054124;28;20021;-76
2023/12/11 05:06:08;;;;;;;41.47;18.38;;;;;;;3.24;100.00;100256.25;5054048;28;20044;-77
2023/12/11 05:08:34;;;;;;;40.85;19.63;;;;;;;3.43;100.00;100287.53;5054300;28;20106;-77
2023/12/11 05:10:59;;;;;;;34.42;16.42;;;;;;;3.20;100.00;100259.22;5052687;28;20075;-76
2023/12/11 05:13:24;;;;;;;46.17;22.92;;;;;;;3.25;100.00;100269.28;5053657;28;20478;-77
2023/12/11 05:15:50;;;;;;;45.65;23.63;;;;;;;3.29;100.00;100272.38;5054165;28;20029;-77
2023/12/11 05:18:16;;;;;;;41.15;19.90;;;;;;;3.27;100.00;100287.53;5052398;28;20029;-79
2023/12/11 05:20:41;;;;;;;40.20;19.75;;;;;;;3.13;100.00;100265.34;5053120;28;20445;-77
2023/12/11 05:23:07;;;;;;;43.53;19.30;;;;;;;3.40;100.00;100287.88;5052234;28;20024;-79
2023/12/11 05:25:32;;;;;;;39.90;19.42;;;;;;;3.53;100.00;100309.28;5037851;28;20473;-78
2023/12/11 05:27:58;;;;;;;41.13;19.15;;;;;;;3.33;100.00;100307.97;5032177;28;20491;-78
2023/12/11 05:30:24;;;;;;;40.20;17.88;;;;;;;3.46;100.00;100316.22;5033068;28;20032;-76
2023/12/11 05:32:50;;;;;;;40.60;19.55;;;;;;;3.19;100.00;100305.03;5033155;28;20034;-77
2023/12/11 05:35:15;;;;;;;42.42;19.85;;;;;;;3.33;100.00;100278.97;5040278;28;20036;-77
2023/12/11 05:37:41;;;;;;;45.05;22.05;;;;;;;3.06;100.00;100288.88;5032997;28;20026;-78
2023/12/11 05:40:07;;;;;;;44.97;23.38;;;;;;;3.14;100.00;100282.78;5033085;28;20032;-77
2023/12/11 05:42:33;;;;;;;45.60;20.88;;;;;;;3.10;100.00;100308.63;5031675;28;20501;-79
2023/12/11 05:44:58;;;;;;;46.20;21.58;;;;;;;2.97;100.00;100245.91;5031774;28;20032;-81
2023/12/11 05:47:23;;;;;;;48.67;24.48;;;;;;;2.90;100.00;100254.63;5031903;28;20033;-77
2023/12/11 05:49:49;;;;;;;82.53;39.10;;;;;;;2.98;100.00;100237.03;5032832;28;20027;-79
2023/12/11 05:52:15;;;;;;;69.43;33.00;;;;;;;3.32;100.00;100266.81;5033038;28;20028;-78
2023/12/11 05:54:40;;;;;;;46.10;22.00;;;;;;;3.24;100.00;100261.53;5042958;28;20090;-77
2023/12/11 05:57:05;;;;;;;46.88;21.25;;;;;;;3.23;100.00;100287.06;5051731;28;20033;-78
2023/12/11 05:59:31;;;;;;;61.03;28.63;;;;;;;3.08;100.00;100271.09;5052550;28;20028;-77
2023/12/11 06:01:56;;;;;;;51.70;26.17;;;;;;;2.91;100.00;100277.34;5051530;28;20035;-77
2023/12/11 06:04:22;;;;;;;40.08;20.60;;;;;;;2.93;100.00;100276.19;5050318;28;20053;-78
2023/12/11 06:06:47;;;;;;;38.08;19.05;;;;;;;2.86;100.00;100263.84;5033200;28;20121;-77
2023/12/11 06:09:13;;;;;;;38.45;17.92;;;;;;;2.98;100.00;100286.22;5032492;28;20109;-77
2023/12/11 06:11:39;;;;;;;43.55;19.48;;;;;;;3.26;100.00;100304.38;5032558;28;20056;-79
2023/12/11 06:14:06;;;;;;;44.10;18.50;;;;;;;3.18;100.00;100284.91;5032415;28;20079;-78
2023/12/11 06:16:32;;;;;;;42.50;21.65;;;;;;;3.09;100.00;100269.28;5051308;28;20099;-78
2023/12/11 06:18:57;;;;;;;46.50;20.90;;;;;;;3.40;100.00;100288.69;5052379;28;20029;-77
2023/12/11 06:21:24;;;;;;;40.65;19.35;;;;;;;3.19;100.00;100285.75;5052206;28;20039;-78
2023/12/11 06:23:49;;;;;;;43.60;20.17;;;;;;;3.13;100.00;100276.69;5050724;28;20400;-77
2023/12/11 06:26:31;;;;;;;40.67;20.75;;;;;;;3.15;100.00;100301.06;5052813;28;20029;-82
2023/12/11 06:28:59;;;;;;;49.47;21.00;;;;;;;3.48;100.00;100326.59;5051221;28;20500;-79
2023/12/11 06:31:25;;;;;;;71.25;39.05;;;;;;;3.66;100.00;100329.88;5051704;28;20056;-79
2023/12/11 06:33:51;;;;;;;65.65;35.45;;;;;;;3.57;100.00;100318.50;5051466;28;20045;-79
2023/12/11 06:36:16;;;;;;;46.00;22.77;;;;;;;3.66;100.00;100300.00;5052119;28;20033;-79
2023/12/11 06:38:43;;;;;;;41.53;20.15;;;;;;;3.19;100.00;100264.69;5051864;28;20033;-79
2023/12/11 06:41:08;;;;;;;42.55;20.80;;;;;;;3.54;100.00;100321.47;5052203;28;20028;-78
2023/12/11 06:43:35;;;;;;;42.17;20.17;;;;;;;3.67;100.00;100335.97;5050573;28;20037;-78
2023/12/11 06:46:01;;;;;;;46.13;20.85;;;;;;;3.17;100.00;100293.00;5051521;28;20082;-79
2023/12/11 06:48:27;;;;;;;46.35;21.35;;;;;;;3.30;100.00;100316.22;5051771;28;20041;-79
2023/12/11 06:50:53;;;;;;;43.97;20.77;;;;;;;3.25;100.00;100284.25;5051864;28;20021;-79
2023/12/11 06:53:19;;;;;;;46.17;19.58;;;;;;;3.42;100.00;100297.25;5051590;28;20079;-79
2023/12/11 06:55:44;;;;;;;43.83;19.48;;;;;;;3.55;100.00;100273.00;5038583;28;20075;-79
2023/12/11 06:58:10;;;;;;;49.08;21.67;;;;;;;3.54;100.00;100278.47;5051410;28;20029;-79
2023/12/11 07:00:35;;;;;;;41.13;18.85;;;;;;;3.59;100.00;100313.88;5047226;28;20021;-79
2023/12/11 07:03:00;;;;;;;49.58;22.10;;;;;;;3.33;100.00;100308.81;5039827;28;20053;-79
2023/12/11 07:05:26;;;;;;;48.42;22.63;;;;;;;3.55;100.00;100296.75;5045875;28;20033;-78
2023/12/11 07:07:51;;;;;;;49.90;22.17;;;;;;;3.57;100.00;100299.22;5033907;28;20033;-80
2023/12/11 07:10:17;;;;;;;48.85;21.25;;;;;;;3.71;100.00;100306.44;5043866;28;20022;-82
2023/12/11 07:12:45;;;;;;;47.92;20.38;;;;;;;3.39;100.00;100292.34;5038853;28;20096;-79
2023/12/11 07:15:12;;;;;;;53.40;24.73;;;;;;;3.42;100.00;100254.25;5031510;28;20032;-78
2023/12/11 07:17:37;;;;;;;50.03;23.55;;;;;;;3.89;100.00;100286.97;5031457;28;20040;-80
2023/12/11 07:20:04;;;;;;;44.35;21.00;;;;;;;3.97;100.00;100315.97;5031831;28;20025;-78
2023/12/11 07:22:31;;;;;;;45.20;20.00;;;;;;;3.97;100.00;100287.75;5030993;28;20030;-80
2023/12/11 07:24:56;;;;;;;50.22;22.48;;;;;;;3.91;100.00;100253.31;5038399;28;20021;-80
2023/12/11 07:27:22;;;;;;;50.38;22.85;;;;;;;3.87;100.00;100270.47;5031354;28;20029;-79
2023/12/11 07:29:47;;;;;;;46.63;21.25;;;;;;;3.90;100.00;100292.03;5031171;28;20027;-78
2023/12/11 07:32:13;;;;;;;46.28;21.88;;;;;;;3.75;100.00;100285.84;5029616;28;20049;-79
2023/12/11 07:34:38;;;;;;;49.67;21.50;;;;;;;4.03;100.00;100316.09;5032379;28;20022;-78
2023/12/11 07:37:04;;;;;;;49.70;23.33;;;;;;;3.97;100.00;100300.13;5029824;28;20123;-79
2023/12/11 07:39:29;;;;;;;47.15;19.77;;;;;;;4.07;100.00;100310.50;5031164;28;20037;-80
2023/12/11 07:41:55;;;;;;;42.30;19.10;;;;;;;4.28;100.00;100329.19;5030107;28;20508;-79
2023/12/11 07:44:20;;;;;;;46.55;19.77;;;;;;;4.27;100.00;100348.69;5031498;28;20085;-80
2023/12/11 07:46:46;;;;;;;50.70;22.30;;;;;;;4.07;100.00;100310.50;5049795;28;20033;-80
2023/12/11 07:49:13;;;;;;;44.10;22.92;;;;;;;3.99;100.00;100287.59;5050806;28;20033;-80
2023/12/11 07:51:39;;;;;;;46.43;22.33;;;;;;;3.78;100.00;100281.06;5050786;28;20387;-79
2023/12/11 07:54:04;;;;;;;45.15;19.88;;;;;;;4.32;100.00;100354.28;5050732;28;20501;-79
2023/12/11 07:56:30;;;;;;;43.33;19.48;;;;;;;3.54;100.00;100286.38;5050917;28;20033;-80
2023/12/11 07:58:55;;;;;;;45.75;19.83;;;;;;;3.97;100.00;100305.41;5050775;28;20021;-79
2023/12/11 08:01:21;;;;;;;44.28;19.10;;;;;;;4.31;100.00;100336.78;5050882;28;20029;-83
2023/12/11 08:03:47;;;;;;;45.90;21.13;;;;;;;4.18;100.00;100318.03;5050583;28;20410;-80
2023/12/11 08:06:12;;;;;;;44.38;20.83;;;;;;;4.49;100.00;100351.56;5050791;28;20462;-79
2023/12/11 08:08:44;;;;;;;44.90;21.40;;;;;;;4.49;100.00;100351.56;5050719;28;20667;-79
2023/12/11 08:11:28;;;;;;;45.60;20.70;;;;;;;4.21;100.00;100301.84;5050676;28;20057;-79
2023/12/11 08:13:54;;;;;;;40.80;19.17;;;;;;;4.60;100.00;100348.53;5050771;28;20056;-78
2023/12/11 08:16:19;;;;;;;49.38;20.20;;;;;;;4.33;100.00;100311.03;5042715;28;20033;-80
2023/12/11 08:18:45;;;;;;;44.85;21.17;;;;;;;4.63;100.00;100349.00;5034804;28;20458;-79
2023/12/11 08:21:11;;;;;;;48.17;22.20;;;;;;;4.55;100.00;100303.31;5034149;28;20044;-78
2023/12/11 08:23:40;;;;;;;48.30;22.10;;;;;;;4.79;100.00;100305.00;5034654;28;20030;-79
2023/12/11 08:26:07;;;;;;;45.50;21.48;;;;;;;5.17;100.00;100342.06;5038691;28;20489;-80
2023/12/11 08:28:33;;;;;;;44.08;21.92;;;;;;;4.64;100.00;100299.66;5054358;28;20484;-79
2023/12/11 08:30:58;;;;;;;46.05;20.45;;;;;;;4.85;100.00;100303.50;5053972;28;20056;-79
2023/12/11 08:33:24;;;;;;;44.30;21.88;;;;;;;5.10;100.00;100322.63;5053292;28;20029;-79
2023/12/11 08:35:49;;;;;;;45.42;22.15;;;;;;;4.94;100.00;100324.38;5052641;28;20053;-79
2023/12/11 08:38:16;;;;;;;55.65;24.77;;;;;;;4.47;100.00;100292.81;5032738;28;20030;-78
2023/12/11 08:40:42;;;;;;;43.05;20.10;;;;;;;4.67;100.00;100315.13;5034042;28;20025;-79
2023/12/11 08:43:08;;;;;;;43.25;20.27;;;;;;;4.43;100.00;100298.44;5032926;28;20021;-79
2023/12/11 08:45:34;;;;;;;44.75;20.55;;;;;;;4.85;100.00;100320.16;5038031;28;20105;-82
2023/12/11 08:47:59;;;;;;;46.40;22.40;;;;;;;4.85;100.00;100322.81;5052700;28;20032;-79
2023/12/11 08:50:25;;;;;;;47.38;22.15;;;;;;;4.87;100.00;100318.16;5052697;28;20033;-79
2023/12/11 08:52:50;;;;;;;46.83;22.60;;;;;;;4.39;100.00;100261.97;5054058;28;20020;-79
2023/12/11 08:55:16;;;;;;;45.47;21.90;;;;;;;5.13;100.00;100328.41;5050285;28;20024;-80
2023/12/11 08:57:44;;;;;;;48.08;23.08;;;;;;;5.06;100.00;100306.28;5033805;28;20026;-80
2023/12/11 09:00:10;;;;;;;44.40;21.15;;;;;;;4.84;100.00;100260.38;5032585;28;20029;-79
2023/12/11 09:02:36;;;;;;;47.80;20.88;;;;;;;5.22;100.00;100315.94;5033444;28;20033;-79
2023/12/11 09:05:01;;;;;;;44.55;21.90;;;;;;;5.24;100.00;100266.34;5033573;28;20045;-79
2023/12/11 09:07:27;;;;;;;46.45;21.98;;;;;;;5.20;100.00;100292.31;5045814;28;20021;-79
2023/12/11 09:09:52;;;;;;;49.00;23.20;;;;;;;4.67;100.00;100238.53;5053469;28;20021;-79
2023/12/11 09:12:18;;;;;;;46.33;22.35;;;;;;;5.30;100.00;100285.97;5053398;28;20053;-82
2023/12/11 09:14:43;;;;;;;46.63;21.40;;;;;;;5.59;100.00;100291.28;5053415;28;20037;-79
2023/12/11 09:17:10;;;;;;;50.45;23.77;;;;;;;5.55;100.00;100290.00;5044531;28;20413;-78
2023/12/11 09:19:35;;;;;;;46.58;22.67;;;;;;;5.80;100.00;100297.69;5033368;28;20053;-78
2023/12/11 09:22:01;;;;;;;49.72;21.45;;;;;;;5.94;100.00;100298.69;5033459;28;20057;-79
2023/12/11 09:24:26;;;;;;;44.42;21.38;;;;;;;5.74;100.00;100282.53;5033508;28;20034;-79
2023/12/11 09:26:52;;;;;;;44.28;21.65;;;;;;;5.90;100.00;100261.19;5040025;28;20032;-79
2023/12/11 09:29:17;;;;;;;44.60;21.85;;;;;;;5.95;100.00;100300.38;5031956;28;20125;-79
2023/12/11 09:31:43;;;;;;;49.50;22.67;;;;;;;5.81;100.00;100252.53;5033312;28;20568;-81
2023/12/11 09:34:09;;;;;;;43.72;20.55;;;;;;;5.97;100.00;100272.72;5032983;28;20490;-78
2023/12/11 09:36:35;;;;;;;48.28;22.45;;;;;;;5.99;100.00;100288.44;5015171;28;20079;-80
2023/12/11 09:39:00;;;;;;;43.42;22.27;;;;;;;5.83;100.00;100252.34;5033376;28;20371;-78
2023/12/11 09:41:32;;;;;;;45.40;22.80;;;;;;;6.40;99.14;100303.81;5015187;28;20397;-78
2023/12/11 09:44:00;;;;;;;44.60;20.98;;;;;;;6.17;99.58;100262.41;5015137;28;20401;-84
2023/12/11 09:46:27;;;;;;;45.95;20.85;;;;;;;6.31;98.69;100279.25;5032969;28;20065;-79
2023/12/11 09:48:52;;;;;;;45.50;23.10;;;;;;;6.30;100.00;100287.41;5014948;28;20094;-79
2023/12/11 09:51:18;;;;;;;47.78;21.92;;;;;;;6.31;96.91;100250.09;5032933;28;20095;-79
2023/12/11 09:53:44;;;;;;;48.25;22.08;;;;;;;6.60;97.25;100277.56;5015133;28;20029;-79
2023/12/11 09:56:12;;;;;;;44.65;22.88;;;;;;;6.53;97.62;100276.66;5032681;28;20104;-79
2023/12/11 09:58:40;;;;;;;45.60;20.63;;;;;;;6.22;99.08;100275.06;5032754;28;20028;-82
2023/12/11 10:01:06;;;;;;;47.80;22.50;;;;;;;5.67;100.00;100271.06;5032705;28;20060;-79
2023/12/11 10:03:32;;;;;;;43.83;21.42;;;;;;;6.07;100.00;100276.91;5033049;28;20030;-79
2023/12/11 10:06:03;;;;;;;47.55;21.70;;;;;;;5.91;100.00;100273.44;5032440;28;20504;-79
2023/12/11 10:08:28;;;;;;;41.60;21.33;;;;;;;5.92;100.00;100253.88;5021506;28;20578;-78
2023/12/11 10:11:25;;;;;;;45.00;21.33;;;;;;;6.38;100.00;100279.34;5012717;28;20108;-79
2023/12/11 10:13:50;;;;;;;47.50;22.73;;;;;;;6.42;100.00;100275.31;4979336;28;20037;-79
2023/12/11 10:16:32;;;;;;;44.47;21.85;;;;;;;6.39;100.00;100284.44;5016538;28;20405;-78
2023/12/11 10:19:00;;;;;;;47.05;22.50;;;;;;;6.72;98.92;100238.94;5032090;28;20460;-79
2023/12/11 10:21:34;;;;;;;46.13;21.70;;;;;;;6.75;97.37;100248.34;5031906;28;20025;-78
2023/12/11 10:24:09;;;;;;;48.92;22.70;;;;;;;7.20;98.87;100278.94;5031913;28;20406;-78
2023/12/11 10:26:44;;;;;;;45.67;22.45;;;;;;;7.83;94.99;100272.84;5028712;28;20026;-81
2023/12/11 10:29:21;;;;;;;47.17;23.13;;;;;;;8.51;88.98;100280.91;5012821;28;20030;-80
2023/12/11 10:31:47;;;;;;;43.50;21.27;;;;;;;8.34;91.11;100280.44;5022920;28;20045;-79
2023/12/11 10:34:12;;;;;;;41.00;21.45;;;;;;;8.42;85.65;100261.69;5032183;28;20572;-79
2023/12/11 10:36:51;;;;;;;49.28;23.35;;;;;;;8.29;82.82;100245.66;5036438;28;20029;-78
2023/12/11 10:39:19;;;;;;;50.00;22.88;;;;;;;9.23;83.84;100260.78;5051336;28;20113;-79
2023/12/11 10:41:46;;;;;;;44.85;23.73;;;;;;;9.18;81.29;100265.88;5051718;28;20035;-80
2023/12/11 10:44:22;;;;;;;43.78;21.50;;;;;;;8.47;84.87;100237.16;5051784;28;20036;-80
2023/12/11 10:46:50;;;;;;;42.45;21.17;;;;;;;8.28;88.36;100225.44;5047804;28;20045;-80
2023/12/11 10:49:17;;;;;;;41.40;20.75;;;;;;;8.50;84.97;100242.09;5031661;28;20075;-79
2023/12/11 10:51:42;;;;;;;44.15;22.35;;;;;;;8.70;84.21;100220.84;5031736;28;20048;-79
2023/12/11 10:54:08;;;;;;;44.55;22.42;;;;;;;9.02;80.74;100197.13;5031406;28;20391;-78
2023/12/11 10:56:33;;;;;;;43.75;22.40;;;;;;;9.23;79.79;100212.88;5034548;28;20252;-79
2023/12/11 10:58:59;;;;;;;40.80;21.70;;;;;;;8.88;82.55;100184.84;5040524;28;20033;-84
2023/12/11 11:01:24;;;;;;;41.72;21.70;;;;;;;9.02;82.18;100197.13;5031773;28;20056;-79
2023/12/11 11:03:50;;;;;;;40.50;21.48;;;;;;;9.06;85.06;100203.69;5031671;28;20057;-80
2023/12/11 11:06:16;;;;;;;41.85;21.83;;;;;;;9.54;82.65;100187.44;5031413;28;20445;-76
2023/12/11 11:08:55;;;;;;;41.55;21.02;;;;;;;9.30;80.22;100172.16;5030415;28;20034;-79
2023/12/11 11:11:32;;;;;;;40.20;20.70;;;;;;;10.12;74.63;100199.13;5030736;28;20055;-79
2023/12/11 11:14:35;;;;;;;53.53;23.17;;;;;;;10.70;75.00;100192.84;5030641;28;20120;-79